Shanghai Dawn — 3FMN2 — position and weather

sailwx.info

Track history (hours):
 
Tides and Currents Weather Stations Pressure Air Temp Water Temp Dewpoint Dewpoint Depression Visibility Wind Speed Wind Dir Waves Ship Positions

Shanghai Dawn

Last reported at 2016-Apr-17 08:33 UTC. Time now 2016-May-28 00:04 UTC.
Position N 01°15' E 104°04'.
Warning: this ship's position is 40 days out of date.

Length 246 m; draft 10 m.

Type: Tanker. MMSI: 356075000.

Date/timePositionNaut miles runAvg speedWind from/ knotsBaromVisibWave heightAir tempDewpointWater temp
2016-Apr-17 08:33N 01°15' E 104°04'8 8.3
2016-Apr-17 07:34N 01°13' E 103°56'8 8.5
2016-Apr-17 06:33N 01°09' E 103°48'9 9.2
2016-Apr-17 05:33N 01°04' E 103°41'1110.5
2016-Apr-17 04:33N 01°07' E 103°31'  
2016-Apr-13 18:32N 01°15' E 103°24'8 8.2
2016-Apr-13 17:33N 01°13' E 103°32'8 8.4
2016-Apr-13 16:33N 01°11' E 103°40'8 7.8
2016-Apr-13 15:33N 01°11' E 103°48'9 9.1
2016-Apr-13 14:33N 01°15' E 103°56'1 0.8
2016-Apr-13 13:16N 01°15' E 103°55'0 0.0
2016-Apr-13 12:31N 01°15' E 103°55'0 0.2
2016-Apr-13 11:31N 01°15' E 103°55'0 0.2
2016-Apr-13 10:28N 01°15' E 103°55'0 0.1
2016-Apr-13 09:10N 01°15' E 103°55'0 0.0
2016-Apr-13 08:31N 01°15' E 103°55'0 0.0
2016-Apr-13 07:19N 01°15' E 103°55'0 0.0
2016-Apr-13 06:31N 01°15' E 103°55'0 0.0
2016-Apr-13 05:19N 01°15' E 103°55'0 0.0
2016-Apr-13 04:19N 01°15' E 103°55'0 0.0
2016-Apr-13 03:31N 01°15' E 103°55'0 0.0
2016-Apr-13 02:31N 01°15' E 103°55'0 0.0
2016-Apr-13 01:31N 01°15' E 103°55'0 0.1
2016-Apr-13 00:31N 01°15' E 103°55'0 0.0
2016-Apr-12 23:31N 01°15' E 103°55'0 0.0
2016-Apr-12 22:28N 01°15' E 103°55'0 0.0
2016-Apr-12 21:31N 01°15' E 103°55'0 0.0
2016-Apr-12 20:31N 01°15' E 103°55'0 0.0
2016-Apr-12 19:31N 01°15' E 103°55'0 0.2
2016-Apr-12 18:28N 01°15' E 103°55'0 0.0
2016-Apr-12 16:31N 01°15' E 103°55'0 0.0
2016-Apr-12 15:22N 01°15' E 103°55'0 0.1
2016-Apr-12 14:10N 01°15' E 103°55'0 0.0
2016-Apr-12 13:28N 01°15' E 103°55'0 0.1
2016-Apr-12 12:31N 01°15' E 103°55'0 0.1
2016-Apr-12 11:31N 01°15' E 103°55'0 0.3
2016-Apr-12 10:33N 01°15' E 103°55'5 4.9
2016-Apr-12 09:33N 01°16' E 104°00'  
Track history (hours):
 
Tides and Currents Weather Stations Pressure Air Temp Water Temp Dewpoint Dewpoint Depression Visibility Wind Speed Wind Dir Waves Ship Positions

Shanghai Dawn

Last reported at 2016-Apr-17 08:33 UTC. Time now 2016-May-28 00:04 UTC.
Position N 01°15' E 104°04'.
Warning: this ship's position is 40 days out of date.

Length 246 m; draft 10 m.

Type: Tanker. MMSI: 356075000.

Date/timePositionNaut miles runAvg speedWind from/ knotsBaromVisibWave heightAir tempDewpointWater temp
2016-Apr-17 08:33N 01°15' E 104°04'8 8.3
2016-Apr-17 07:34N 01°13' E 103°56'8 8.5
2016-Apr-17 06:33N 01°09' E 103°48'9 9.2
2016-Apr-17 05:33N 01°04' E 103°41'1110.5
2016-Apr-17 04:33N 01°07' E 103°31'  
2016-Apr-13 18:32N 01°15' E 103°24'8 8.2
2016-Apr-13 17:33N 01°13' E 103°32'8 8.4
2016-Apr-13 16:33N 01°11' E 103°40'8 7.8
2016-Apr-13 15:33N 01°11' E 103°48'9 9.1
2016-Apr-13 14:33N 01°15' E 103°56'1 0.8
2016-Apr-13 13:16N 01°15' E 103°55'0 0.0
2016-Apr-13 12:31N 01°15' E 103°55'0 0.2
2016-Apr-13 11:31N 01°15' E 103°55'0 0.2
2016-Apr-13 10:28N 01°15' E 103°55'0 0.1
2016-Apr-13 09:10N 01°15' E 103°55'0 0.0
2016-Apr-13 08:31N 01°15' E 103°55'0 0.0
2016-Apr-13 07:19N 01°15' E 103°55'0 0.0
2016-Apr-13 06:31N 01°15' E 103°55'0 0.0
2016-Apr-13 05:19N 01°15' E 103°55'0 0.0
2016-Apr-13 04:19N 01°15' E 103°55'0 0.0
2016-Apr-13 03:31N 01°15' E 103°55'0 0.0
2016-Apr-13 02:31N 01°15' E 103°55'0 0.0
2016-Apr-13 01:31N 01°15' E 103°55'0 0.1
2016-Apr-13 00:31N 01°15' E 103°55'0 0.0
2016-Apr-12 23:31N 01°15' E 103°55'0 0.0
2016-Apr-12 22:28N 01°15' E 103°55'0 0.0
2016-Apr-12 21:31N 01°15' E 103°55'0 0.0
2016-Apr-12 20:31N 01°15' E 103°55'0 0.0
2016-Apr-12 19:31N 01°15' E 103°55'0 0.2
2016-Apr-12 18:28N 01°15' E 103°55'0 0.0
2016-Apr-12 16:31N 01°15' E 103°55'0 0.0
2016-Apr-12 15:22N 01°15' E 103°55'0 0.1
2016-Apr-12 14:10N 01°15' E 103°55'0 0.0
2016-Apr-12 13:28N 01°15' E 103°55'0 0.1
2016-Apr-12 12:31N 01°15' E 103°55'0 0.1
2016-Apr-12 11:31N 01°15' E 103°55'0 0.3
2016-Apr-12 10:33N 01°15' E 103°55'5 4.9
2016-Apr-12 09:33N 01°16' E 104°00'  

Dump ship's entire track history